sensor_id;sensor_type;location;lat;lon;timestamp;pressure;altitude;pressure_sealevel;temperature
76895;BMP280;65855;42.030;13.078;2022-12-22T00:01:36;94021.22;;;3.51
76895;BMP280;65855;42.030;13.078;2022-12-22T00:04:20;94015.84;;;3.59
76895;BMP280;65855;42.030;13.078;2022-12-22T00:07:05;94019.59;;;3.45
76895;BMP280;65855;42.030;13.078;2022-12-22T00:09:49;94014.34;;;3.42
76895;BMP280;65855;42.030;13.078;2022-12-22T00:12:33;94010.25;;;3.52
76895;BMP280;65855;42.030;13.078;2022-12-22T00:15:18;94009.31;;;3.69
76895;BMP280;65855;42.030;13.078;2022-12-22T00:18:03;94010.91;;;3.91
76895;BMP280;65855;42.030;13.078;2022-12-22T00:20:47;94002.91;;;3.73
76895;BMP280;65855;42.030;13.078;2022-12-22T00:23:31;93999.00;;;3.66
76895;BMP280;65855;42.030;13.078;2022-12-22T00:26:16;94006.63;;;3.59
76895;BMP280;65855;42.030;13.078;2022-12-22T00:29:00;94001.00;;;4.12
76895;BMP280;65855;42.030;13.078;2022-12-22T00:31:45;94011.63;;;4.24
76895;BMP280;65855;42.030;13.078;2022-12-22T00:34:36;94011.50;;;3.98
76895;BMP280;65855;42.030;13.078;2022-12-22T00:37:21;94009.47;;;3.95
76895;BMP280;65855;42.030;13.078;2022-12-22T00:40:15;94005.72;;;4.30
76895;BMP280;65855;42.030;13.078;2022-12-22T00:43:00;94006.13;;;4.38
76895;BMP280;65855;42.030;13.078;2022-12-22T00:45:44;94006.97;;;4.28
76895;BMP280;65855;42.030;13.078;2022-12-22T00:48:28;94004.69;;;4.10
76895;BMP280;65855;42.030;13.078;2022-12-22T00:51:12;93996.69;;;3.92
76895;BMP280;65855;42.030;13.078;2022-12-22T00:53:56;93998.47;;;4.29
76895;BMP280;65855;42.030;13.078;2022-12-22T00:56:40;93988.00;;;4.48
76895;BMP280;65855;42.030;13.078;2022-12-22T00:59:25;93994.88;;;4.20
76895;BMP280;65855;42.030;13.078;2022-12-22T01:02:11;93992.91;;;4.22
76895;BMP280;65855;42.030;13.078;2022-12-22T01:04:55;94001.50;;;4.30
76895;BMP280;65855;42.030;13.078;2022-12-22T01:07:39;93993.16;;;4.41
76895;BMP280;65855;42.030;13.078;2022-12-22T01:10:25;93989.09;;;4.35
76895;BMP280;65855;42.030;13.078;2022-12-22T01:13:18;93985.00;;;3.92
76895;BMP280;65855;42.030;13.078;2022-12-22T01:16:03;93980.66;;;3.72
76895;BMP280;65855;42.030;13.078;2022-12-22T01:18:46;93977.63;;;3.54
76895;BMP280;65855;42.030;13.078;2022-12-22T01:21:31;93979.13;;;4.35
76895;BMP280;65855;42.030;13.078;2022-12-22T01:24:17;93975.94;;;4.61
76895;BMP280;65855;42.030;13.078;2022-12-22T01:27:02;93974.31;;;4.13
76895;BMP280;65855;42.030;13.078;2022-12-22T01:29:47;93975.34;;;4.17
76895;BMP280;65855;42.030;13.078;2022-12-22T01:32:31;93963.88;;;4.16
76895;BMP280;65855;42.030;13.078;2022-12-22T01:35:30;93972.81;;;3.63
76895;BMP280;65855;42.030;13.078;2022-12-22T01:38:14;93971.31;;;3.62
76895;BMP280;65855;42.030;13.078;2022-12-22T01:40:59;93963.75;;;3.41
76895;BMP280;65855;42.030;13.078;2022-12-22T01:43:44;93971.66;;;3.38
76895;BMP280;65855;42.030;13.078;2022-12-22T01:46:35;93976.13;;;3.53
76895;BMP280;65855;42.030;13.078;2022-12-22T01:49:30;93978.34;;;3.82
76895;BMP280;65855;42.030;13.078;2022-12-22T01:52:18;93979.44;;;3.58
76895;BMP280;65855;42.030;13.078;2022-12-22T01:55:08;93980.97;;;3.59
76895;BMP280;65855;42.030;13.078;2022-12-22T01:57:53;93970.28;;;3.31
76895;BMP280;65855;42.030;13.078;2022-12-22T02:00:38;93977.63;;;3.10
76895;BMP280;65855;42.030;13.078;2022-12-22T02:03:23;93984.78;;;3.07
76895;BMP280;65855;42.030;13.078;2022-12-22T02:12:27;93986.97;;;3.31
76895;BMP280;65855;42.030;13.078;2022-12-22T02:15:37;93986.66;;;3.00
76895;BMP280;65855;42.030;13.078;2022-12-22T02:18:53;93980.88;;;3.11
76895;BMP280;65855;42.030;13.078;2022-12-22T02:21:51;93991.94;;;3.31
76895;BMP280;65855;42.030;13.078;2022-12-22T02:25:04;93980.56;;;3.35
76895;BMP280;65855;42.030;13.078;2022-12-22T02:27:50;93971.66;;;3.38
76895;BMP280;65855;42.030;13.078;2022-12-22T02:30:36;93961.31;;;3.46
76895;BMP280;65855;42.030;13.078;2022-12-22T02:33:21;93960.25;;;3.42
76895;BMP280;65855;42.030;13.078;2022-12-22T02:36:20;93963.66;;;3.36
76895;BMP280;65855;42.030;13.078;2022-12-22T02:39:19;93965.84;;;3.65
76895;BMP280;65855;42.030;13.078;2022-12-22T02:42:15;93962.16;;;3.84
76895;BMP280;65855;42.030;13.078;2022-12-22T02:48:15;93960.84;;;4.14
76895;BMP280;65855;42.030;13.078;2022-12-22T02:51:10;93961.28;;;4.27
76895;BMP280;65855;42.030;13.078;2022-12-22T02:53:58;93954.97;;;4.20
76895;BMP280;65855;42.030;13.078;2022-12-22T02:56:43;93951.72;;;4.03
76895;BMP280;65855;42.030;13.078;2022-12-22T02:59:28;93949.31;;;4.08
76895;BMP280;65855;42.030;13.078;2022-12-22T03:02:12;93942.66;;;4.13
76895;BMP280;65855;42.030;13.078;2022-12-22T03:04:56;93938.81;;;4.06
76895;BMP280;65855;42.030;13.078;2022-12-22T03:07:40;93943.19;;;3.99
76895;BMP280;65855;42.030;13.078;2022-12-22T03:10:24;93935.16;;;3.97
76895;BMP280;65855;42.030;13.078;2022-12-22T03:13:08;93927.41;;;4.31
76895;BMP280;65855;42.030;13.078;2022-12-22T03:15:52;93935.41;;;4.33
76895;BMP280;65855;42.030;13.078;2022-12-22T03:18:36;93940.00;;;4.20
76895;BMP280;65855;42.030;13.078;2022-12-22T03:21:21;93938.34;;;4.09
76895;BMP280;65855;42.030;13.078;2022-12-22T03:24:05;93939.44;;;3.81
76895;BMP280;65855;42.030;13.078;2022-12-22T03:26:50;93944.03;;;3.88
76895;BMP280;65855;42.030;13.078;2022-12-22T03:29:15;93945.84;;;3.93
76895;BMP280;65855;42.030;13.078;2022-12-22T03:31:41;93947.59;;;3.92
76895;BMP280;65855;42.030;13.078;2022-12-22T03:34:06;93944.03;;;3.88
76895;BMP280;65855;42.030;13.078;2022-12-22T03:36:31;93944.25;;;3.87
76895;BMP280;65855;42.030;13.078;2022-12-22T03:38:57;93944.25;;;4.03
76895;BMP280;65855;42.030;13.078;2022-12-22T03:41:22;93942.72;;;4.02
76895;BMP280;65855;42.030;13.078;2022-12-22T03:44:06;93947.78;;;3.91
76895;BMP280;65855;42.030;13.078;2022-12-22T03:46:50;93945.41;;;3.80
76895;BMP280;65855;42.030;13.078;2022-12-22T03:49:16;93943.56;;;3.91
76895;BMP280;65855;42.030;13.078;2022-12-22T03:51:47;93929.69;;;4.16
76895;BMP280;65855;42.030;13.078;2022-12-22T03:54:15;93943.06;;;4.27
76895;BMP280;65855;42.030;13.078;2022-12-22T03:56:41;93951.56;;;4.47
76895;BMP280;65855;42.030;13.078;2022-12-22T03:59:06;93948.84;;;4.48
76895;BMP280;65855;42.030;13.078;2022-12-22T04:01:35;93957.66;;;4.34
76895;BMP280;65855;42.030;13.078;2022-12-22T04:04:01;93956.56;;;4.30
76895;BMP280;65855;42.030;13.078;2022-12-22T04:06:27;93959.22;;;4.40
76895;BMP280;65855;42.030;13.078;2022-12-22T04:08:52;93957.66;;;4.34
76895;BMP280;65855;42.030;13.078;2022-12-22T04:11:18;93956.06;;;4.29
76895;BMP280;65855;42.030;13.078;2022-12-22T04:14:02;93953.13;;;4.15
76895;BMP280;65855;42.030;13.078;2022-12-22T04:16:28;93954.78;;;4.26
76895;BMP280;65855;42.030;13.078;2022-12-22T04:18:54;93957.66;;;4.34
76895;BMP280;65855;42.030;13.078;2022-12-22T04:21:19;93958.41;;;4.35
76895;BMP280;65855;42.030;13.078;2022-12-22T04:23:44;93961.63;;;4.35
76895;BMP280;65855;42.030;13.078;2022-12-22T04:26:10;93959.38;;;4.34
76895;BMP280;65855;42.030;13.078;2022-12-22T04:28:35;93957.41;;;4.36
76895;BMP280;65855;42.030;13.078;2022-12-22T04:31:01;93943.25;;;4.41
76895;BMP280;65855;42.030;13.078;2022-12-22T04:33:26;93946.25;;;4.43
76895;BMP280;65855;42.030;13.078;2022-12-22T04:35:52;93949.31;;;4.45
76895;BMP280;65855;42.030;13.078;2022-12-22T04:38:17;93942.63;;;4.51
76895;BMP280;65855;42.030;13.078;2022-12-22T04:40:43;93947.38;;;4.52
76895;BMP280;65855;42.030;13.078;2022-12-22T04:43:08;93949.94;;;4.57
76895;BMP280;65855;42.030;13.078;2022-12-22T04:45:34;93941.69;;;4.78
76895;BMP280;65855;42.030;13.078;2022-12-22T04:47:59;93939.81;;;5.10
76895;BMP280;65855;42.030;13.078;2022-12-22T04:50:25;93941.28;;;4.85
76895;BMP280;65855;42.030;13.078;2022-12-22T04:52:50;93945.91;;;4.98
76895;BMP280;65855;42.030;13.078;2022-12-22T04:55:16;93946.41;;;4.95
76895;BMP280;65855;42.030;13.078;2022-12-22T04:57:41;93941.97;;;5.02
76895;BMP280;65855;42.030;13.078;2022-12-22T05:00:08;93944.56;;;5.12
76895;BMP280;65855;42.030;13.078;2022-12-22T05:02:34;93949.66;;;5.22
76895;BMP280;65855;42.030;13.078;2022-12-22T05:04:59;93954.69;;;5.26
76895;BMP280;65855;42.030;13.078;2022-12-22T05:07:25;93948.53;;;5.34
76895;BMP280;65855;42.030;13.078;2022-12-22T05:09:50;93944.03;;;5.36
76895;BMP280;65855;42.030;13.078;2022-12-22T05:12:16;93949.47;;;5.54
76895;BMP280;65855;42.030;13.078;2022-12-22T05:15:00;93944.69;;;5.52
76895;BMP280;65855;42.030;13.078;2022-12-22T05:17:25;93945.44;;;5.27
76895;BMP280;65855;42.030;13.078;2022-12-22T05:19:51;93944.13;;;5.20
76895;BMP280;65855;42.030;13.078;2022-12-22T05:22:16;93939.69;;;5.26
76895;BMP280;65855;42.030;13.078;2022-12-22T05:24:42;93935.75;;;5.30
76895;BMP280;65855;42.030;13.078;2022-12-22T05:27:09;93949.00;;;5.31
76895;BMP280;65855;42.030;13.078;2022-12-22T05:29:35;93955.75;;;5.30
76895;BMP280;65855;42.030;13.078;2022-12-22T05:32:00;93947.72;;;5.28
76895;BMP280;65855;42.030;13.078;2022-12-22T05:34:26;93944.03;;;5.36
76895;BMP280;65855;42.030;13.078;2022-12-22T05:36:51;93949.81;;;5.36
76895;BMP280;65855;42.030;13.078;2022-12-22T05:39:17;93952.53;;;5.35
76895;BMP280;65855;42.030;13.078;2022-12-22T05:41:43;93953.75;;;5.32
76895;BMP280;65855;42.030;13.078;2022-12-22T05:44:09;93956.53;;;5.36
76895;BMP280;65855;42.030;13.078;2022-12-22T05:46:34;93965.56;;;5.37
76895;BMP280;65855;42.030;13.078;2022-12-22T05:48:59;93962.34;;;5.41
76895;BMP280;65855;42.030;13.078;2022-12-22T05:51:25;93958.94;;;5.52
76895;BMP280;65855;42.030;13.078;2022-12-22T05:53:50;93957.47;;;5.56
76895;BMP280;65855;42.030;13.078;2022-12-22T05:56:16;93954.22;;;5.55
76895;BMP280;65855;42.030;13.078;2022-12-22T05:58:41;93957.31;;;5.67
76895;BMP280;65855;42.030;13.078;2022-12-22T06:01:06;93953.84;;;5.68
76895;BMP280;65855;42.030;13.078;2022-12-22T06:03:32;93958.38;;;5.71
76895;BMP280;65855;42.030;13.078;2022-12-22T06:05:58;93959.03;;;5.62
76895;BMP280;65855;42.030;13.078;2022-12-22T06:08:23;93957.53;;;5.66
76895;BMP280;65855;42.030;13.078;2022-12-22T06:10:50;93956.47;;;5.57
76895;BMP280;65855;42.030;13.078;2022-12-22T06:13:15;93950.44;;;5.53
76895;BMP280;65855;42.030;13.078;2022-12-22T06:15:41;93947.91;;;5.48
76895;BMP280;65855;42.030;13.078;2022-12-22T06:18:06;93945.66;;;5.47
76895;BMP280;65855;42.030;13.078;2022-12-22T06:20:32;93938.38;;;5.45
76895;BMP280;65855;42.030;13.078;2022-12-22T06:22:57;93941.88;;;5.44
76895;BMP280;65855;42.030;13.078;2022-12-22T06:25:22;93940.31;;;5.38
76895;BMP280;65855;42.030;13.078;2022-12-22T06:27:48;93934.50;;;5.33
76895;BMP280;65855;42.030;13.078;2022-12-22T06:30:14;93930.44;;;5.27
76895;BMP280;65855;42.030;13.078;2022-12-22T06:32:40;93930.44;;;5.22
76895;BMP280;65855;42.030;13.078;2022-12-22T06:35:07;93923.16;;;5.21
76895;BMP280;65855;42.030;13.078;2022-12-22T06:37:32;93926.69;;;5.25
76895;BMP280;65855;42.030;13.078;2022-12-22T06:39:58;93927.19;;;5.26
76895;BMP280;65855;42.030;13.078;2022-12-22T06:42:23;93925.25;;;5.28
76895;BMP280;65855;42.030;13.078;2022-12-22T06:45:08;93927.25;;;5.31
76895;BMP280;65855;42.030;13.078;2022-12-22T06:47:33;93929.38;;;5.44
76895;BMP280;65855;42.030;13.078;2022-12-22T06:49:59;93939.31;;;5.39
76895;BMP280;65855;42.030;13.078;2022-12-22T06:52:24;93937.31;;;5.36
76895;BMP280;65855;42.030;13.078;2022-12-22T06:54:49;93940.66;;;5.47
76895;BMP280;65855;42.030;13.078;2022-12-22T06:57:15;93949.78;;;5.62
76895;BMP280;65855;42.030;13.078;2022-12-22T06:59:41;93948.53;;;5.65
76895;BMP280;65855;42.030;13.078;2022-12-22T07:02:09;93946.22;;;5.53
76895;BMP280;65855;42.030;13.078;2022-12-22T07:04:34;93947.06;;;5.38
76895;BMP280;65855;42.030;13.078;2022-12-22T07:07:00;93954.00;;;5.31
76895;BMP280;65855;42.030;13.078;2022-12-22T07:09:25;93954.19;;;5.25
76895;BMP280;65855;42.030;13.078;2022-12-22T07:11:50;93950.84;;;4.93
76895;BMP280;65855;42.030;13.078;2022-12-22T07:14:16;93951.16;;;4.76
76895;BMP280;65855;42.030;13.078;2022-12-22T07:16:41;93957.03;;;4.65
76895;BMP280;65855;42.030;13.078;2022-12-22T07:19:07;93952.78;;;4.65
76895;BMP280;65855;42.030;13.078;2022-12-22T07:21:32;93958.13;;;4.74
76895;BMP280;65855;42.030;13.078;2022-12-22T07:23:58;93958.53;;;4.87
76895;BMP280;65855;42.030;13.078;2022-12-22T07:26:23;93958.66;;;4.97
76895;BMP280;65855;42.030;13.078;2022-12-22T07:28:48;93975.13;;;5.19
76895;BMP280;65855;42.030;13.078;2022-12-22T07:31:16;93984.88;;;5.46
76895;BMP280;65855;42.030;13.078;2022-12-22T07:33:42;93984.28;;;5.91
76895;BMP280;65855;42.030;13.078;2022-12-22T07:36:11;93984.22;;;6.53
76895;BMP280;65855;42.030;13.078;2022-12-22T07:38:40;93981.22;;;7.16
76895;BMP280;65855;42.030;13.078;2022-12-22T07:41:06;93986.03;;;6.67
76895;BMP280;65855;42.030;13.078;2022-12-22T07:43:53;93991.19;;;6.05
76895;BMP280;65855;42.030;13.078;2022-12-22T07:46:19;93993.88;;;5.99
76895;BMP280;65855;42.030;13.078;2022-12-22T07:48:44;93990.16;;;6.37
76895;BMP280;65855;42.030;13.078;2022-12-22T07:51:37;93984.22;;;6.53
76895;BMP280;65855;42.030;13.078;2022-12-22T07:54:11;93995.63;;;6.34
76895;BMP280;65855;42.030;13.078;2022-12-22T07:56:38;94012.50;;;6.13
76895;BMP280;65855;42.030;13.078;2022-12-22T07:59:03;94017.75;;;6.11
76895;BMP280;65855;42.030;13.078;2022-12-22T08:01:29;94010.88;;;6.33
76895;BMP280;65855;42.030;13.078;2022-12-22T08:03:55;94013.44;;;6.43
76895;BMP280;65855;42.030;13.078;2022-12-22T08:06:21;93996.69;;;6.48
76895;BMP280;65855;42.030;13.078;2022-12-22T08:08:46;93996.69;;;6.43
76895;BMP280;65855;42.030;13.078;2022-12-22T08:11:12;93999.75;;;6.50
76895;BMP280;65855;42.030;13.078;2022-12-22T08:13:37;93991.22;;;6.56
76895;BMP280;65855;42.030;13.078;2022-12-22T08:16:04;93990.22;;;6.52
76895;BMP280;65855;42.030;13.078;2022-12-22T08:18:31;93976.38;;;6.40
76895;BMP280;65855;42.030;13.078;2022-12-22T08:20:56;93981.19;;;6.51
76895;BMP280;65855;42.030;13.078;2022-12-22T08:23:22;93969.72;;;6.60
76895;BMP280;65855;42.030;13.078;2022-12-22T08:25:51;93959.97;;;6.68
76895;BMP280;65855;42.030;13.078;2022-12-22T08:28:17;93951.84;;;6.97
76895;BMP280;65855;42.030;13.078;2022-12-22T08:30:43;93953.38;;;7.08
76895;BMP280;65855;42.030;13.078;2022-12-22T08:33:09;93947.41;;;7.28
76895;BMP280;65855;42.030;13.078;2022-12-22T08:35:35;93951.94;;;7.41
76895;BMP280;65855;42.030;13.078;2022-12-22T08:38:00;93949.94;;;7.58
76895;BMP280;65855;42.030;13.078;2022-12-22T08:40:27;93950.47;;;7.69
76895;BMP280;65855;42.030;13.078;2022-12-22T08:42:58;93948.22;;;7.97
76895;BMP280;65855;42.030;13.078;2022-12-22T08:45:26;93947.44;;;8.36
76895;BMP280;65855;42.030;13.078;2022-12-22T08:47:52;93944.88;;;8.51
76895;BMP280;65855;42.030;13.078;2022-12-22T08:50:17;93941.88;;;8.49
76895;BMP280;65855;42.030;13.078;2022-12-22T08:52:43;93945.84;;;8.69
76895;BMP280;65855;42.030;13.078;2022-12-22T08:55:09;93946.31;;;8.76
76895;BMP280;65855;42.030;13.078;2022-12-22T08:57:34;93942.25;;;8.90
76895;BMP280;65855;42.030;13.078;2022-12-22T09:00:00;93940.31;;;8.67
76895;BMP280;65855;42.030;13.078;2022-12-22T09:02:25;93939.38;;;9.06
76895;BMP280;65855;42.030;13.078;2022-12-22T09:04:50;93931.88;;;9.44
76895;BMP280;65855;42.030;13.078;2022-12-22T09:07:16;93940.94;;;9.45
76895;BMP280;65855;42.030;13.078;2022-12-22T09:09:43;93949.41;;;9.96
76895;BMP280;65855;42.030;13.078;2022-12-22T09:12:10;93954.47;;;10.24
76895;BMP280;65855;42.030;13.078;2022-12-22T09:14:35;93968.53;;;10.30
76895;BMP280;65855;42.030;13.078;2022-12-22T09:17:01;93967.19;;;10.09
76895;BMP280;65855;42.030;13.078;2022-12-22T09:19:26;93979.59;;;10.01
76895;BMP280;65855;42.030;13.078;2022-12-22T09:21:52;93987.16;;;10.01
76895;BMP280;65855;42.030;13.078;2022-12-22T09:24:17;93982.16;;;9.59
76895;BMP280;65855;42.030;13.078;2022-12-22T09:26:43;93989.38;;;9.22
76895;BMP280;65855;42.030;13.078;2022-12-22T09:29:08;93980.06;;;8.56
76895;BMP280;65855;42.030;13.078;2022-12-22T09:31:34;93977.31;;;8.28
76895;BMP280;65855;42.030;13.078;2022-12-22T09:34:00;93965.56;;;8.23
76895;BMP280;65855;42.030;13.078;2022-12-22T09:36:28;93959.75;;;8.33
76895;BMP280;65855;42.030;13.078;2022-12-22T09:38:54;93961.41;;;8.66
76895;BMP280;65855;42.030;13.078;2022-12-22T09:44:12;93954.00;;;9.89
76895;BMP280;65855;42.030;13.078;2022-12-22T09:46:38;93946.25;;;10.14
76895;BMP280;65855;42.030;13.078;2022-12-22T09:49:05;93947.03;;;10.37
76895;BMP280;65855;42.030;13.078;2022-12-22T09:51:33;93942.66;;;10.94
76895;BMP280;65855;42.030;13.078;2022-12-22T09:54:03;93942.50;;;11.27
76895;BMP280;65855;42.030;13.078;2022-12-22T09:56:29;93935.44;;;11.05
76895;BMP280;65855;42.030;13.078;2022-12-22T09:58:55;93933.03;;;10.73
76895;BMP280;65855;42.030;13.078;2022-12-22T10:01:52;93925.25;;;10.23
76895;BMP280;65855;42.030;13.078;2022-12-22T10:09:54;93925.59;;;9.79
76895;BMP280;65855;42.030;13.078;2022-12-22T10:12:23;93924.53;;;10.18
76895;BMP280;65855;42.030;13.078;2022-12-22T10:14:50;93923.22;;;10.94
76895;BMP280;65855;42.030;13.078;2022-12-22T10:17:31;93925.28;;;11.10
76895;BMP280;65855;42.030;13.078;2022-12-22T10:20:20;93930.31;;;11.83
76895;BMP280;65855;42.030;13.078;2022-12-22T10:23:00;93932.72;;;11.93
76895;BMP280;65855;42.030;13.078;2022-12-22T10:25:33;93942.50;;;12.12
76895;BMP280;65855;42.030;13.078;2022-12-22T10:28:03;93935.28;;;12.50
76895;BMP280;65855;42.030;13.078;2022-12-22T10:30:32;93939.22;;;12.56
76895;BMP280;65855;42.030;13.078;2022-12-22T10:33:12;93931.38;;;12.71
76895;BMP280;65855;42.030;13.078;2022-12-22T10:40:54;93935.72;;;12.52
76895;BMP280;65855;42.030;13.078;2022-12-22T10:43:34;93934.19;;;12.70
76895;BMP280;65855;42.030;13.078;2022-12-22T10:46:00;93938.00;;;12.67
76895;BMP280;65855;42.030;13.078;2022-12-22T10:48:37;93931.97;;;12.37
76895;BMP280;65855;42.030;13.078;2022-12-22T10:51:06;93934.56;;;12.76
76895;BMP280;65855;42.030;13.078;2022-12-22T10:53:51;93934.94;;;12.83
76895;BMP280;65855;42.030;13.078;2022-12-22T10:56:22;93933.63;;;12.86
76895;BMP280;65855;42.030;13.078;2022-12-22T10:58:56;93929.97;;;12.92
76895;BMP280;65855;42.030;13.078;2022-12-22T11:01:32;93929.72;;;12.80
76895;BMP280;65855;42.030;13.078;2022-12-22T11:06:48;93922.13;;;12.80
76895;BMP280;65855;42.030;13.078;2022-12-22T11:09:13;93914.69;;;12.97
76895;BMP280;65855;42.030;13.078;2022-12-22T11:11:47;93913.28;;;12.91
76895;BMP280;65855;42.030;13.078;2022-12-22T11:14:34;93904.28;;;12.58
76895;BMP280;65855;42.030;13.078;2022-12-22T11:19:49;93881.97;;;11.03
76895;BMP280;65855;42.030;13.078;2022-12-22T11:33:47;93865.53;;;11.06
76895;BMP280;65855;42.030;13.078;2022-12-22T11:39:36;93852.09;;;12.09
76895;BMP280;65855;42.030;13.078;2022-12-22T11:50:27;93817.97;;;14.16
76895;BMP280;65855;42.030;13.078;2022-12-22T11:53:11;93806.09;;;15.04
76895;BMP280;65855;42.030;13.078;2022-12-22T12:07:28;93763.63;;;14.00
76895;BMP280;65855;42.030;13.078;2022-12-22T12:10:16;93764.25;;;14.60
76895;BMP280;65855;42.030;13.078;2022-12-22T12:13:05;93746.94;;;14.62
76895;BMP280;65855;42.030;13.078;2022-12-22T12:21:05;93753.66;;;15.00
76895;BMP280;65855;42.030;13.078;2022-12-22T12:26:43;93753.50;;;15.46
76895;BMP280;65855;42.030;13.078;2022-12-22T12:31:47;93758.63;;;15.13
76895;BMP280;65855;42.030;13.078;2022-12-22T12:34:15;93754.28;;;15.22
76895;BMP280;65855;42.030;13.078;2022-12-22T12:36:55;93759.50;;;15.17
76895;BMP280;65855;42.030;13.078;2022-12-22T12:44:36;93757.84;;;14.88
76895;BMP280;65855;42.030;13.078;2022-12-22T12:47:06;93755.72;;;14.65
76895;BMP280;65855;42.030;13.078;2022-12-22T12:51:58;93770.78;;;14.44
76895;BMP280;65855;42.030;13.078;2022-12-22T12:57:09;93770.41;;;14.21
76895;BMP280;65855;42.030;13.078;2022-12-22T13:08:16;93776.22;;;13.62
76895;BMP280;65855;42.030;13.078;2022-12-22T13:13:51;93777.69;;;13.54
76895;BMP280;65855;42.030;13.078;2022-12-22T13:21:07;93786.41;;;13.19
76895;BMP280;65855;42.030;13.078;2022-12-22T13:23:35;93791.00;;;13.38
76895;BMP280;65855;42.030;13.078;2022-12-22T13:26:06;93791.91;;;13.42
76895;BMP280;65855;42.030;13.078;2022-12-22T13:28:35;93804.66;;;13.50
76895;BMP280;65855;42.030;13.078;2022-12-22T13:31:22;93800.59;;;13.71
76895;BMP280;65855;42.030;13.078;2022-12-22T13:34:03;93799.50;;;13.64
76895;BMP280;65855;42.030;13.078;2022-12-22T13:36:30;93790.69;;;13.61
76895;BMP280;65855;42.030;13.078;2022-12-22T13:39:11;93776.25;;;14.21
76895;BMP280;65855;42.030;13.078;2022-12-22T13:41:39;93775.91;;;14.78
76895;BMP280;65855;42.030;13.078;2022-12-22T13:44:06;93774.03;;;15.86
76895;BMP280;65855;42.030;13.078;2022-12-22T13:46:34;93773.44;;;16.35
76895;BMP280;65855;42.030;13.078;2022-12-22T13:49:02;93782.41;;;14.45
76895;BMP280;65855;42.030;13.078;2022-12-22T13:51:35;93782.13;;;13.79
76895;BMP280;65855;42.030;13.078;2022-12-22T13:56:36;93773.28;;;20.21
76895;BMP280;65855;42.030;13.078;2022-12-22T13:59:02;93754.94;;;21.54
76895;BMP280;65855;42.030;13.078;2022-12-22T14:01:28;93750.56;;;20.34
76895;BMP280;65855;42.030;13.078;2022-12-22T14:03:57;93760.00;;;18.45
76895;BMP280;65855;42.030;13.078;2022-12-22T14:06:36;93770.06;;;17.19
76895;BMP280;65855;42.030;13.078;2022-12-22T14:11:37;93776.75;;;15.73
76895;BMP280;65855;42.030;13.078;2022-12-22T14:14:17;93768.88;;;14.91
76895;BMP280;65855;42.030;13.078;2022-12-22T14:16:46;93769.09;;;14.32
76895;BMP280;65855;42.030;13.078;2022-12-22T14:19:13;93772.63;;;14.14
76895;BMP280;65855;42.030;13.078;2022-12-22T14:21:40;93785.72;;;13.78
76895;BMP280;65855;42.030;13.078;2022-12-22T14:24:11;93781.03;;;13.42
76895;BMP280;65855;42.030;13.078;2022-12-22T14:26:40;93788.75;;;13.15
76895;BMP280;65855;42.030;13.078;2022-12-22T14:29:11;93786.34;;;12.49
76895;BMP280;65855;42.030;13.078;2022-12-22T14:31:59;93783.84;;;12.36
76895;BMP280;65855;42.030;13.078;2022-12-22T14:34:31;93776.81;;;12.33
76895;BMP280;65855;42.030;13.078;2022-12-22T14:36:57;93774.88;;;12.17
76895;BMP280;65855;42.030;13.078;2022-12-22T14:39:28;93775.41;;;12.27
76895;BMP280;65855;42.030;13.078;2022-12-22T14:41:57;93771.38;;;12.26
76895;BMP280;65855;42.030;13.078;2022-12-22T14:50:01;93764.53;;;12.40
76895;BMP280;65855;42.030;13.078;2022-12-22T14:52:34;93771.94;;;12.49
76895;BMP280;65855;42.030;13.078;2022-12-22T14:55:02;93754.22;;;12.49
76895;BMP280;65855;42.030;13.078;2022-12-22T14:57:35;93763.88;;;12.48
76895;BMP280;65855;42.030;13.078;2022-12-22T15:00:05;93750.28;;;12.57
76895;BMP280;65855;42.030;13.078;2022-12-22T15:02:48;93752.06;;;12.70
76895;BMP280;65855;42.030;13.078;2022-12-22T15:05:31;93748.94;;;12.73
76895;BMP280;65855;42.030;13.078;2022-12-22T15:08:02;93746.66;;;12.49
76895;BMP280;65855;42.030;13.078;2022-12-22T15:10:35;93740.03;;;11.74
76895;BMP280;65855;42.030;13.078;2022-12-22T15:13:04;93743.84;;;11.45
76895;BMP280;65855;42.030;13.078;2022-12-22T15:15:32;93744.22;;;11.39
76895;BMP280;65855;42.030;13.078;2022-12-22T15:17:58;93739.69;;;11.36
76895;BMP280;65855;42.030;13.078;2022-12-22T15:20:25;93748.22;;;11.22
76895;BMP280;65855;42.030;13.078;2022-12-22T15:22:51;93751.88;;;10.98
76895;BMP280;65855;42.030;13.078;2022-12-22T15:25:19;93750.28;;;10.70
76895;BMP280;65855;42.030;13.078;2022-12-22T15:27:45;93739.59;;;10.42
76895;BMP280;65855;42.030;13.078;2022-12-22T15:30:13;93733.78;;;10.23
76895;BMP280;65855;42.030;13.078;2022-12-22T15:32:40;93742.13;;;10.19
76895;BMP280;65855;42.030;13.078;2022-12-22T15:35:14;93737.25;;;9.81
76895;BMP280;65855;42.030;13.078;2022-12-22T15:37:40;93749.06;;;9.58
76895;BMP280;65855;42.030;13.078;2022-12-22T15:40:18;93753.72;;;9.46
76895;BMP280;65855;42.030;13.078;2022-12-22T15:42:44;93756.31;;;9.36
76895;BMP280;65855;42.030;13.078;2022-12-22T15:45:11;93760.88;;;9.34
76895;BMP280;65855;42.030;13.078;2022-12-22T15:47:36;93761.22;;;9.23
76895;BMP280;65855;42.030;13.078;2022-12-22T15:50:02;93773.16;;;9.08
76895;BMP280;65855;42.030;13.078;2022-12-22T15:52:30;93778.94;;;8.75
76895;BMP280;65855;42.030;13.078;2022-12-22T15:54:56;93788.53;;;8.68
76895;BMP280;65855;42.030;13.078;2022-12-22T15:57:21;93784.06;;;8.56
76895;BMP280;65855;42.030;13.078;2022-12-22T15:59:47;93793.72;;;8.82
76895;BMP280;65855;42.030;13.078;2022-12-22T16:02:13;93808.28;;;8.85
76895;BMP280;65855;42.030;13.078;2022-12-22T16:04:38;93807.56;;;8.74
76895;BMP280;65855;42.030;13.078;2022-12-22T16:07:04;93798.31;;;8.17
76895;BMP280;65855;42.030;13.078;2022-12-22T16:09:32;93799.34;;;8.07
76895;BMP280;65855;42.030;13.078;2022-12-22T16:12:15;93802.34;;;8.04
76895;BMP280;65855;42.030;13.078;2022-12-22T16:14:44;93806.91;;;7.92
76895;BMP280;65855;42.030;13.078;2022-12-22T16:17:16;93802.84;;;8.01
76895;BMP280;65855;42.030;13.078;2022-12-22T16:19:42;93811.81;;;8.31
76895;BMP280;65855;42.030;13.078;2022-12-22T16:22:10;93811.97;;;7.63
76895;BMP280;65855;42.030;13.078;2022-12-22T16:24:36;93811.72;;;7.00
76895;BMP280;65855;42.030;13.078;2022-12-22T16:27:02;93826.78;;;7.20